Time;durP1;ratioP1;P1;durP2;ratioP2;P2;SDS_P1;SDS_P2;PMS_P1;PMS_P2;Temp;Humidity;BMP_temperature;BMP_pressure;BME280_temperature;BME280_humidity;BME280_pressure;Samples;Min_cycle;Max_cycle;Signal;HPM_P1;HPM_P2
2022/10/23 00:00:55;;;;;;;11.45;6.38;;;;;;;;;;5078406;28;20032;-82
2022/10/23 00:03:21;;;;;;;11.73;6.47;;;;;;;;;;5066895;28;20036;-82
2022/10/23 00:05:47;;;;;;;9.82;6.40;;;;;;;;;;5076894;28;20558;-82
2022/10/23 00:08:13;;;;;;;9.50;6.72;;;;;;;;;;5060746;28;20109;-83
2022/10/23 00:10:40;;;;;;;11.10;6.13;;;;;;;;;;5058386;28;20021;-84
2022/10/23 00:13:06;;;;;;;12.60;7.88;;;;;;;;;;5073770;28;20063;-83
2022/10/23 00:15:34;;;;;;;11.40;7.40;;;;;;;;;;5079972;28;20028;-84
2022/10/23 00:18:00;;;;;;;13.02;7.90;;;;;;;;;;5077470;28;20047;-83
2022/10/23 00:20:26;;;;;;;12.65;6.70;;;;;;;;;;5080670;28;20031;-82
2022/10/23 00:22:52;;;;;;;10.88;7.03;;;;;;;;;;5078458;28;20089;-83
2022/10/23 00:25:19;;;;;;;12.48;7.63;;;;;;;;;;5062331;28;20031;-84
2022/10/23 00:27:45;;;;;;;12.70;7.93;;;;;;;;;;5069078;28;20024;-84
2022/10/23 00:30:11;;;;;;;10.18;6.95;;;;;;;;;;5060428;28;20400;-81
2022/10/23 00:32:37;;;;;;;10.98;6.95;;;;;;;;;;5073032;28;20036;-82
2022/10/23 00:35:04;;;;;;;11.68;6.80;;;;;;;;;;5087289;28;20008;-80
2022/10/23 00:37:30;;;;;;;11.25;6.97;;;;;;;;;;5095653;28;20017;-81
2022/10/23 00:39:56;;;;;;;9.70;6.28;;;;;;;;;;5090869;28;20054;-80
2022/10/23 00:42:22;;;;;;;11.75;6.47;;;;;;;;;;5075313;28;20057;-80
2022/10/23 00:44:48;;;;;;;10.60;5.63;;;;;;;;;;5094367;28;20020;-81
2022/10/23 00:47:14;;;;;;;9.45;6.55;;;;;;;;;;5093898;28;20035;-81
2022/10/23 00:49:41;;;;;;;10.70;7.00;;;;;;;;;;5061463;28;20147;-80
2022/10/23 00:52:08;;;;;;;12.00;6.75;;;;;;;;;;5088442;28;20044;-83
2022/10/23 00:54:36;;;;;;;9.00;6.05;;;;;;;;;;5082775;28;20033;-83
2022/10/23 00:57:03;;;;;;;9.68;7.03;;;;;;;;;;5065059;28;20029;-84
2022/10/23 00:59:29;;;;;;;11.38;6.57;;;;;;;;;;5047411;28;20056;-84
2022/10/23 01:01:55;;;;;;;10.02;6.07;;;;;;;;;;5075865;28;20017;-84
2022/10/23 01:04:22;;;;;;;10.60;6.32;;;;;;;;;;5071729;28;20037;-83
2022/10/23 01:06:50;;;;;;;10.82;7.68;;;;;;;;;;5073009;28;20107;-83
2022/10/23 01:09:16;;;;;;;12.30;7.03;;;;;;;;;;5079315;28;20031;-84
2022/10/23 01:11:49;;;;;;;10.85;6.60;;;;;;;;;;5077782;28;20025;-83
2022/10/23 01:14:20;;;;;;;13.85;7.30;;;;;;;;;;5067966;28;20029;-83
2022/10/23 01:17:05;;;;;;;12.63;6.40;;;;;;;;;;5042028;28;20557;-84
2022/10/23 01:19:49;;;;;;;12.05;7.15;;;;;;;;;;5073175;28;20017;-84
2022/10/23 01:22:15;;;;;;;11.45;6.97;;;;;;;;;;5078747;28;20024;-84
2022/10/23 01:24:47;;;;;;;12.10;6.70;;;;;;;;;;5078001;28;20028;-84
2022/10/23 01:27:13;;;;;;;11.88;7.05;;;;;;;;;;5076573;28;20109;-84
2022/10/23 01:29:43;;;;;;;11.02;6.65;;;;;;;;;;5077213;28;20025;-84
2022/10/23 01:32:11;;;;;;;11.85;7.78;;;;;;;;;;5062406;28;20055;-84
2022/10/23 01:34:49;;;;;;;10.82;6.65;;;;;;;;;;5058051;28;20045;-83
2022/10/23 01:37:16;;;;;;;11.93;7.63;;;;;;;;;;5062503;28;20120;-83
2022/10/23 01:39:48;;;;;;;12.82;7.38;;;;;;;;;;5072220;28;20025;-83
2022/10/23 01:42:19;;;;;;;11.43;6.95;;;;;;;;;;5075977;28;20029;-83
2022/10/23 01:44:49;;;;;;;11.70;7.03;;;;;;;;;;5067785;28;20033;-82
2022/10/23 01:47:16;;;;;;;10.95;6.78;;;;;;;;;;5060257;28;20029;-83
2022/10/23 01:49:43;;;;;;;12.05;7.07;;;;;;;;;;5077376;28;20346;-84
2022/10/23 01:52:12;;;;;;;13.25;7.57;;;;;;;;;;5077490;28;20036;-83
2022/10/23 01:54:39;;;;;;;12.00;8.27;;;;;;;;;;5067847;28;20139;-82
2022/10/23 01:57:08;;;;;;;14.77;8.50;;;;;;;;;;5074328;28;20038;-83
2022/10/23 01:59:36;;;;;;;13.45;7.97;;;;;;;;;;5058179;28;20492;-81
2022/10/23 02:02:03;;;;;;;12.85;7.65;;;;;;;;;;5062860;28;20033;-84
2022/10/23 02:04:37;;;;;;;12.43;7.38;;;;;;;;;;5057232;28;20097;-82
2022/10/23 02:07:03;;;;;;;14.27;7.95;;;;;;;;;;5066903;28;20017;-84
2022/10/23 02:09:29;;;;;;;13.18;8.25;;;;;;;;;;5057803;28;20074;-83
2022/10/23 02:12:02;;;;;;;11.65;8.05;;;;;;;;;;5076306;28;20029;-83
2022/10/23 02:14:43;;;;;;;13.57;8.02;;;;;;;;;;5077584;28;20089;-83
2022/10/23 02:17:16;;;;;;;13.82;8.20;;;;;;;;;;5076600;28;20107;-84
2022/10/23 02:19:49;;;;;;;15.40;8.82;;;;;;;;;;5065826;28;20029;-83
2022/10/23 02:22:21;;;;;;;13.93;8.95;;;;;;;;;;5059787;28;20031;-83
2022/10/23 02:24:55;;;;;;;14.25;9.13;;;;;;;;;;5059357;28;20082;-82
2022/10/23 02:27:25;;;;;;;14.25;9.18;;;;;;;;;;5075412;28;20036;-83
2022/10/23 02:29:55;;;;;;;16.55;10.23;;;;;;;;;;5079172;28;20088;-83
2022/10/23 02:32:24;;;;;;;17.23;10.05;;;;;;;;;;5044390;28;20441;-83
2022/10/23 02:34:50;;;;;;;16.85;9.85;;;;;;;;;;5071708;28;20040;-83
2022/10/23 02:37:16;;;;;;;17.02;10.15;;;;;;;;;;5079503;28;20025;-83
2022/10/23 02:39:42;;;;;;;20.60;10.77;;;;;;;;;;5080581;28;20027;-83
2022/10/23 02:42:08;;;;;;;20.63;11.88;;;;;;;;;;5068999;28;20585;-83
2022/10/23 02:44:37;;;;;;;24.15;12.90;;;;;;;;;;5062948;28;20084;-83
2022/10/23 02:47:36;;;;;;;24.40;13.32;;;;;;;;;;5081280;28;20492;-82
2022/10/23 02:50:20;;;;;;;22.75;13.68;;;;;;;;;;5036257;28;20103;-82
2022/10/23 02:52:52;;;;;;;38.22;15.52;;;;;;;;;;5076373;28;20040;-83
2022/10/23 02:55:38;;;;;;;30.58;14.95;;;;;;;;;;5049793;28;20047;-84
2022/10/23 02:58:10;;;;;;;30.00;15.02;;;;;;;;;;5076150;28;20070;-83
2022/10/23 03:00:38;;;;;;;22.33;13.23;;;;;;;;;;5075855;28;20029;-83
2022/10/23 03:03:18;;;;;;;26.23;13.38;;;;;;;;;;5059877;28;20244;-83
2022/10/23 03:05:45;;;;;;;18.73;12.02;;;;;;;;;;5063769;28;20033;-83
2022/10/23 03:08:12;;;;;;;19.80;12.20;;;;;;;;;;5078468;28;20505;-83
2022/10/23 03:10:39;;;;;;;25.20;12.80;;;;;;;;;;5072599;28;20025;-83
2022/10/23 03:13:05;;;;;;;23.58;12.60;;;;;;;;;;5080389;28;20384;-84
2022/10/23 03:15:31;;;;;;;23.08;13.32;;;;;;;;;;5080259;28;20027;-84
2022/10/23 03:17:57;;;;;;;25.65;11.15;;;;;;;;;;5080642;28;20025;-84
2022/10/23 03:20:23;;;;;;;20.88;11.25;;;;;;;;;;5079941;28;20020;-82
2022/10/23 03:22:49;;;;;;;17.50;11.23;;;;;;;;;;5082420;28;20369;-82
2022/10/23 03:25:15;;;;;;;16.52;10.30;;;;;;;;;;5071452;28;20064;-81
2022/10/23 03:27:41;;;;;;;20.98;11.52;;;;;;;;;;5079851;28;20024;-82
2022/10/23 03:30:07;;;;;;;15.18;10.43;;;;;;;;;;5067720;28;20546;-83
2022/10/23 03:32:33;;;;;;;16.92;10.35;;;;;;;;;;5072575;28;20074;-83
2022/10/23 03:34:59;;;;;;;17.05;9.80;;;;;;;;;;5064374;28;20033;-83
2022/10/23 03:37:25;;;;;;;18.75;10.13;;;;;;;;;;5071005;28;20552;-83
2022/10/23 03:39:51;;;;;;;15.57;10.13;;;;;;;;;;5081298;28;20373;-83
2022/10/23 03:42:17;;;;;;;16.20;10.63;;;;;;;;;;5080281;28;20047;-83
2022/10/23 03:44:43;;;;;;;17.13;10.73;;;;;;;;;;5079675;28;20559;-82
2022/10/23 03:47:10;;;;;;;15.50;9.98;;;;;;;;;;5076621;28;20071;-82
2022/10/23 03:49:37;;;;;;;16.42;11.38;;;;;;;;;;5070888;28;20016;-83
2022/10/23 03:52:03;;;;;;;17.10;10.55;;;;;;;;;;5075527;28;20040;-83
2022/10/23 03:54:29;;;;;;;15.00;9.77;;;;;;;;;;5080156;28;20104;-81
2022/10/23 03:56:56;;;;;;;14.00;9.25;;;;;;;;;;5079594;28;20028;-83
2022/10/23 03:59:22;;;;;;;15.77;10.73;;;;;;;;;;5060943;28;20047;-83
2022/10/23 04:01:48;;;;;;;14.75;9.98;;;;;;;;;;5073332;28;20040;-82
2022/10/23 04:04:14;;;;;;;14.43;9.77;;;;;;;;;;5064015;28;20101;-83
2022/10/23 04:06:40;;;;;;;20.65;9.00;;;;;;;;;;5081908;28;20096;-83
2022/10/23 04:09:07;;;;;;;14.90;10.13;;;;;;;;;;5079636;28;20031;-83
2022/10/23 04:11:33;;;;;;;16.27;9.10;;;;;;;;;;5068830;28;20476;-83
2022/10/23 04:13:59;;;;;;;15.23;9.57;;;;;;;;;;5058465;28;20400;-83
2022/10/23 04:16:25;;;;;;;17.02;9.35;;;;;;;;;;5078473;28;20111;-82
2022/10/23 04:18:51;;;;;;;14.90;9.57;;;;;;;;;;5064741;28;20110;-82
2022/10/23 04:21:17;;;;;;;15.95;9.55;;;;;;;;;;5065467;28;20024;-81
2022/10/23 04:23:43;;;;;;;20.17;9.30;;;;;;;;;;5075734;28;20028;-83
2022/10/23 04:26:09;;;;;;;13.55;8.40;;;;;;;;;;5076949;28;20094;-82
2022/10/23 04:28:35;;;;;;;14.30;9.32;;;;;;;;;;5077069;28;20029;-83
2022/10/23 04:31:01;;;;;;;20.83;9.80;;;;;;;;;;5078344;28;20073;-83
2022/10/23 04:33:28;;;;;;;15.02;9.50;;;;;;;;;;5077697;28;20107;-83
2022/10/23 04:35:54;;;;;;;16.70;9.68;;;;;;;;;;5070882;28;20039;-83
2022/10/23 04:38:20;;;;;;;20.23;10.13;;;;;;;;;;5075691;28;20061;-84
2022/10/23 04:40:46;;;;;;;17.55;10.57;;;;;;;;;;5075564;28;20040;-84
2022/10/23 04:43:12;;;;;;;15.63;9.48;;;;;;;;;;5072744;28;20547;-83
2022/10/23 04:45:38;;;;;;;19.40;9.98;;;;;;;;;;5066970;28;20023;-83
2022/10/23 04:48:04;;;;;;;18.65;9.73;;;;;;;;;;5075399;28;20063;-83
2022/10/23 04:50:30;;;;;;;17.10;9.43;;;;;;;;;;5074611;28;20021;-83
2022/10/23 04:52:56;;;;;;;20.35;10.40;;;;;;;;;;5077395;28;20048;-83
2022/10/23 04:55:24;;;;;;;15.52;9.90;;;;;;;;;;5066682;28;20016;-83
2022/10/23 04:57:50;;;;;;;15.30;10.15;;;;;;;;;;5075164;28;20047;-83
2022/10/23 05:00:16;;;;;;;15.27;9.07;;;;;;;;;;5068622;28;20134;-83
2022/10/23 05:02:42;;;;;;;13.05;8.55;;;;;;;;;;5058914;28;20033;-83
2022/10/23 05:05:08;;;;;;;20.42;10.45;;;;;;;;;;5076681;28;20028;-82
2022/10/23 05:07:35;;;;;;;27.92;10.57;;;;;;;;;;5076756;28;20463;-83
2022/10/23 05:10:02;;;;;;;23.50;11.73;;;;;;;;;;5077053;28;20034;-82
2022/10/23 05:12:28;;;;;;;18.40;11.63;;;;;;;;;;5076260;28;20023;-83
2022/10/23 05:14:54;;;;;;;25.13;12.75;;;;;;;;;;5063873;28;20033;-83
2022/10/23 05:17:22;;;;;;;22.92;12.73;;;;;;;;;;5077207;28;20020;-83
2022/10/23 05:19:52;;;;;;;19.17;11.30;;;;;;;;;;5077018;28;20032;-83
2022/10/23 05:22:19;;;;;;;21.35;12.73;;;;;;;;;;5076920;28;20400;-82
2022/10/23 05:24:45;;;;;;;20.23;12.23;;;;;;;;;;5075038;28;20028;-83
2022/10/23 05:27:11;;;;;;;24.73;13.68;;;;;;;;;;5077787;28;20103;-83
2022/10/23 05:29:38;;;;;;;26.10;12.75;;;;;;;;;;5060571;28;20052;-82
2022/10/23 05:32:06;;;;;;;23.15;13.60;;;;;;;;;;5056848;28;20039;-83
2022/10/23 05:34:35;;;;;;;30.50;14.10;;;;;;;;;;5057794;28;20041;-82
2022/10/23 05:37:02;;;;;;;29.55;15.45;;;;;;;;;;5063041;28;20032;-82
2022/10/23 05:39:28;;;;;;;23.73;15.50;;;;;;;;;;5065213;28;20095;-83
2022/10/23 05:41:54;;;;;;;28.98;15.60;;;;;;;;;;5072956;28;20032;-82
2022/10/23 05:44:21;;;;;;;22.00;14.70;;;;;;;;;;5060004;28;20036;-80
2022/10/23 05:46:47;;;;;;;27.08;14.45;;;;;;;;;;5075767;28;20016;-83
2022/10/23 05:49:13;;;;;;;25.23;14.68;;;;;;;;;;5066065;28;20018;-82
2022/10/23 05:51:39;;;;;;;21.83;13.85;;;;;;;;;;5062109;28;20033;-82
2022/10/23 05:54:09;;;;;;;22.63;13.63;;;;;;;;;;5063699;28;20036;-82
2022/10/23 05:56:35;;;;;;;19.25;12.18;;;;;;;;;;5073827;28;20547;-81
2022/10/23 05:59:01;;;;;;;20.08;13.45;;;;;;;;;;5072168;28;20025;-81
2022/10/23 06:01:27;;;;;;;24.05;13.55;;;;;;;;;;5070547;28;20040;-82
2022/10/23 06:03:53;;;;;;;22.63;13.18;;;;;;;;;;5064989;28;20037;-81
2022/10/23 06:06:19;;;;;;;20.80;13.65;;;;;;;;;;5075576;28;20383;-82
2022/10/23 06:08:45;;;;;;;20.60;13.63;;;;;;;;;;5071160;28;20025;-82
2022/10/23 06:11:12;;;;;;;22.38;13.85;;;;;;;;;;5072061;28;20024;-82
2022/10/23 06:13:39;;;;;;;19.65;13.43;;;;;;;;;;5072107;28;21668;-80
2022/10/23 06:16:12;;;;;;;19.63;12.18;;;;;;;;;;5077440;28;20089;-82
2022/10/23 06:18:38;;;;;;;17.60;12.00;;;;;;;;;;5079553;28;20498;-81
2022/10/23 06:21:04;;;;;;;18.67;12.70;;;;;;;;;;5061544;28;20424;-82
2022/10/23 06:23:31;;;;;;;17.98;11.98;;;;;;;;;;5076144;28;20092;-82
2022/10/23 06:25:57;;;;;;;19.92;11.43;;;;;;;;;;5073856;28;20048;-81
2022/10/23 06:28:23;;;;;;;16.08;10.68;;;;;;;;;;5079361;28;20365;-82
2022/10/23 06:30:49;;;;;;;15.95;10.18;;;;;;;;;;5065549;28;20044;-81
2022/10/23 06:33:15;;;;;;;16.42;11.23;;;;;;;;;;5060590;28;20056;-80
2022/10/23 06:35:41;;;;;;;17.05;10.30;;;;;;;;;;5072539;28;20050;-82
2022/10/23 06:38:09;;;;;;;16.25;10.48;;;;;;;;;;5076762;28;20037;-80
2022/10/23 06:40:35;;;;;;;24.20;14.20;;;;;;;;;;5060368;28;20475;-80
2022/10/23 06:43:01;;;;;;;20.00;12.00;;;;;;;;;;5078891;28;20028;-81
2022/10/23 06:45:28;;;;;;;31.13;15.95;;;;;;;;;;5079036;28;20387;-80
2022/10/23 06:47:55;;;;;;;31.05;16.45;;;;;;;;;;5060593;28;20071;-82
2022/10/23 06:50:21;;;;;;;24.13;12.73;;;;;;;;;;5074983;28;20031;-80
2022/10/23 06:52:47;;;;;;;23.42;12.02;;;;;;;;;;5078565;28;20037;-81
2022/10/23 06:55:13;;;;;;;21.15;12.40;;;;;;;;;;5080619;28;20074;-81
2022/10/23 06:57:39;;;;;;;19.50;11.95;;;;;;;;;;5079450;28;20063;-82
2022/10/23 07:00:05;;;;;;;20.95;11.55;;;;;;;;;;5081040;28;20029;-82
2022/10/23 07:02:31;;;;;;;24.15;13.20;;;;;;;;;;5066347;28;20396;-82
2022/10/23 07:04:57;;;;;;;21.52;12.15;;;;;;;;;;5043427;28;20029;-80
2022/10/23 07:07:23;;;;;;;22.42;11.95;;;;;;;;;;5067084;28;20021;-82
2022/10/23 07:09:49;;;;;;;20.42;11.55;;;;;;;;;;5062864;28;20059;-78
2022/10/23 07:12:15;;;;;;;21.20;11.65;;;;;;;;;;5067367;28;20031;-82
2022/10/23 07:14:41;;;;;;;24.80;11.88;;;;;;;;;;5079519;28;20511;-82
2022/10/23 07:17:07;;;;;;;18.52;11.82;;;;;;;;;;5056513;28;20035;-82
2022/10/23 07:19:33;;;;;;;19.58;11.02;;;;;;;;;;5073220;28;20112;-82
2022/10/23 07:21:59;;;;;;;20.33;11.05;;;;;;;;;;5077134;28;20029;-82
2022/10/23 07:24:25;;;;;;;18.60;10.75;;;;;;;;;;5061380;28;20032;-82
2022/10/23 07:26:51;;;;;;;22.90;10.90;;;;;;;;;;5076433;28;20044;-82
2022/10/23 07:29:17;;;;;;;19.00;10.95;;;;;;;;;;5062294;28;20629;-82
2022/10/23 07:31:43;;;;;;;14.35;9.45;;;;;;;;;;5067884;28;20056;-82
2022/10/23 07:34:09;;;;;;;15.15;9.90;;;;;;;;;;5072871;28;20032;-81
2022/10/23 07:36:36;;;;;;;15.32;10.13;;;;;;;;;;5079366;28;20555;-82
2022/10/23 07:39:02;;;;;;;19.27;11.65;;;;;;;;;;5078055;28;20431;-81
2022/10/23 07:41:28;;;;;;;22.17;12.32;;;;;;;;;;5078005;28;20079;-80
2022/10/23 07:43:54;;;;;;;18.23;12.13;;;;;;;;;;5062103;28;20507;-81
2022/10/23 07:46:20;;;;;;;18.58;12.80;;;;;;;;;;5072100;28;20078;-83
2022/10/23 07:48:46;;;;;;;19.95;12.63;;;;;;;;;;5059940;28;20052;-79
2022/10/23 07:51:13;;;;;;;26.15;15.40;;;;;;;;;;5045143;28;20094;-82
2022/10/23 07:53:39;;;;;;;42.70;16.95;;;;;;;;;;5073826;28;20076;-82
2022/10/23 07:56:14;;;;;;;61.67;19.90;;;;;;;;;;5063096;28;20034;-80
2022/10/23 07:58:40;;;;;;;39.65;18.05;;;;;;;;;;5078080;28;20021;-79
2022/10/23 08:01:13;;;;;;;35.75;18.25;;;;;;;;;;5070493;28;20029;-82
2022/10/23 08:03:38;;;;;;;;;;;;;;;;;;5060151;28;20036;-80
2022/10/23 08:06:05;;;;;;;34.42;20.13;;;;;;;;;;5076391;28;19995;-82
2022/10/23 08:08:31;;;;;;;36.67;20.50;;;;;;;;;;5078195;28;20571;-82
2022/10/23 08:10:57;;;;;;;46.33;21.95;;;;;;;;;;5075813;28;20084;-81
2022/10/23 08:13:23;;;;;;;40.38;21.60;;;;;;;;;;5065911;28;20033;-81
2022/10/23 08:15:50;;;;;;;47.05;23.92;;;;;;;;;;5058751;28;20021;-79
2022/10/23 08:18:16;;;;;;;49.88;24.70;;;;;;;;;;5078467;28;20388;-82
2022/10/23 08:20:43;;;;;;;51.10;26.05;;;;;;;;;;5058533;28;20440;-82
2022/10/23 08:23:11;;;;;;;53.88;25.25;;;;;;;;;;5063761;28;20088;-82
2022/10/23 08:25:37;;;;;;;48.80;24.25;;;;;;;;;;5072644;28;20043;-81
2022/10/23 08:28:03;;;;;;;47.92;25.08;;;;;;;;;;5078023;28;20126;-80
2022/10/23 08:30:29;;;;;;;48.38;26.90;;;;;;;;;;5077260;28;20024;-79
2022/10/23 08:32:55;;;;;;;45.83;24.00;;;;;;;;;;5078158;28;20020;-82
2022/10/23 08:35:21;;;;;;;45.42;23.30;;;;;;;;;;5077424;28;20036;-79
2022/10/23 08:37:47;;;;;;;44.80;24.25;;;;;;;;;;5078292;28;20385;-81
2022/10/23 08:40:17;;;;;;;46.30;25.55;;;;;;;;;;5076612;28;20078;-82
2022/10/23 08:42:46;;;;;;;49.80;23.40;;;;;;;;;;5077845;28;20135;-81
2022/10/23 08:45:28;;;;;;;46.42;23.55;;;;;;;;;;5078534;28;20024;-81
2022/10/23 08:47:57;;;;;;;43.70;23.00;;;;;;;;;;5079182;28;20043;-81
2022/10/23 08:50:34;;;;;;;41.92;22.48;;;;;;;;;;5076705;28;20434;-81
2022/10/23 08:53:02;;;;;;;41.40;22.13;;;;;;;;;;5074952;28;20123;-82
2022/10/23 08:55:36;;;;;;;43.00;22.15;;;;;;;;;;5078196;28;20403;-80
2022/10/23 08:58:06;;;;;;;43.28;22.20;;;;;;;;;;5060477;28;20059;-81
2022/10/23 09:00:33;;;;;;;44.08;23.20;;;;;;;;;;5078756;28;20484;-82
2022/10/23 09:03:01;;;;;;;42.47;22.15;;;;;;;;;;5071887;28;20033;-83
2022/10/23 09:05:27;;;;;;;41.05;20.73;;;;;;;;;;5077014;28;20040;-82
2022/10/23 09:07:59;;;;;;;45.60;21.80;;;;;;;;;;5078199;28;20502;-82
2022/10/23 09:10:29;;;;;;;42.28;22.20;;;;;;;;;;5075610;28;20430;-83
2022/10/23 09:13:12;;;;;;;44.75;23.27;;;;;;;;;;5076225;28;20043;-83
2022/10/23 09:15:41;;;;;;;43.92;23.75;;;;;;;;;;5075136;28;20020;-81
2022/10/23 09:18:12;;;;;;;45.72;23.52;;;;;;;;;;5052301;28;20442;-79
2022/10/23 09:20:39;;;;;;;47.25;24.35;;;;;;;;;;5052576;28;20024;-81
2022/10/23 09:23:19;;;;;;;50.47;25.00;;;;;;;;;;5065996;28;20036;-80
2022/10/23 09:25:45;;;;;;;48.60;25.60;;;;;;;;;;5077445;28;20024;-82
2022/10/23 09:28:18;;;;;;;47.47;27.25;;;;;;;;;;5076763;28;20053;-82
2022/10/23 09:30:44;;;;;;;52.70;26.88;;;;;;;;;;5078185;28;20083;-82
2022/10/23 09:33:18;;;;;;;47.65;27.52;;;;;;;;;;5074315;28;20483;-82
2022/10/23 09:35:58;;;;;;;49.45;26.92;;;;;;;;;;5059915;28;20013;-82
2022/10/23 09:38:30;;;;;;;50.20;26.08;;;;;;;;;;5051959;28;20056;-82
2022/10/23 09:40:58;;;;;;;47.10;24.90;;;;;;;;;;5075045;28;20024;-82
2022/10/23 09:43:26;;;;;;;51.22;27.80;;;;;;;;;;5058241;28;20040;-80
2022/10/23 09:45:56;;;;;;;50.30;27.55;;;;;;;;;;5062670;28;20044;-81
2022/10/23 09:48:22;;;;;;;47.72;25.35;;;;;;;;;;5075415;28;20063;-82
2022/10/23 09:50:50;;;;;;;43.08;25.63;;;;;;;;;;5075797;28;20021;-82
2022/10/23 09:53:18;;;;;;;42.90;23.83;;;;;;;;;;5068811;28;20131;-80
2022/10/23 09:55:50;;;;;;;42.30;23.48;;;;;;;;;;5060091;28;20100;-79
2022/10/23 09:58:16;;;;;;;;;;;;;;;;;;5063953;28;20048;-82
2022/10/23 10:00:46;;;;;;;42.63;23.63;;;;;;;;;;5076559;28;19919;-81
2022/10/23 10:03:22;;;;;;;42.08;24.80;;;;;;;;;;5071347;28;20032;-81
2022/10/23 10:05:59;;;;;;;47.63;23.52;;;;;;;;;;5061959;28;20043;-79
2022/10/23 10:08:43;;;;;;;45.67;24.80;;;;;;;;;;5069609;28;20380;-78
2022/10/23 10:11:17;;;;;;;46.65;24.92;;;;;;;;;;5062061;28;20098;-79
2022/10/23 10:13:52;;;;;;;49.90;25.33;;;;;;;;;;5069314;28;20048;-81
2022/10/23 10:16:36;;;;;;;44.28;22.35;;;;;;;;;;5062226;28;20025;-81
2022/10/23 10:19:11;;;;;;;42.85;23.63;;;;;;;;;;5044927;28;20020;-80
2022/10/23 10:21:40;;;;;;;42.58;23.13;;;;;;;;;;5059656;28;20445;-81
2022/10/23 10:24:09;;;;;;;40.40;21.60;;;;;;;;;;5061407;28;20028;-81
2022/10/23 10:26:38;;;;;;;40.85;21.20;;;;;;;;;;5044390;28;20028;-81
2022/10/23 10:29:04;;;;;;;38.85;20.52;;;;;;;;;;5057005;28;20348;-81
2022/10/23 10:31:30;;;;;;;35.78;19.45;;;;;;;;;;5064721;28;20024;-80
2022/10/23 10:34:02;;;;;;;36.53;18.88;;;;;;;;;;5055444;28;20032;-81
2022/10/23 10:36:37;;;;;;;33.65;19.23;;;;;;;;;;5068448;28;20036;-80
2022/10/23 10:39:04;;;;;;;29.65;19.25;;;;;;;;;;5072290;28;20037;-79
2022/10/23 10:41:38;;;;;;;34.03;19.70;;;;;;;;;;5063097;28;20032;-81
2022/10/23 10:44:16;;;;;;;33.63;20.73;;;;;;;;;;5069090;28;20032;-82
2022/10/23 10:46:42;;;;;;;37.13;22.15;;;;;;;;;;5068197;28;20500;-81
2022/10/23 10:49:11;;;;;;;31.75;18.52;;;;;;;;;;5062615;28;20021;-80
2022/10/23 10:51:43;;;;;;;31.42;18.33;;;;;;;;;;5070422;28;20093;-81
2022/10/23 10:54:21;;;;;;;29.75;17.60;;;;;;;;;;5056720;28;20123;-79
2022/10/23 10:56:48;;;;;;;23.23;13.38;;;;;;;;;;5063622;28;20044;-80
2022/10/23 10:59:36;;;;;;;20.20;13.10;;;;;;;;;;5070139;28;20399;-79
2022/10/23 11:02:19;;;;;;;17.10;11.55;;;;;;;;;;5071927;28;20028;-81
2022/10/23 11:04:51;;;;;;;16.58;10.10;;;;;;;;;;5069591;28;20029;-81
2022/10/23 11:07:20;;;;;;;14.10;10.23;;;;;;;;;;5046917;28;20029;-81
2022/10/23 11:09:46;;;;;;;16.23;11.27;;;;;;;;;;5048320;28;20138;-80
2022/10/23 11:12:17;;;;;;;14.68;9.88;;;;;;;;;;5070431;28;20029;-80
2022/10/23 11:14:44;;;;;;;11.70;8.57;;;;;;;;;;5070418;28;20515;-81
2022/10/23 11:17:23;;;;;;;13.68;8.48;;;;;;;;;;5067340;28;20074;-81
2022/10/23 11:22:52;;;;;;;13.32;9.23;;;;;;;;;;3543103;28;21954;-81
2022/10/23 11:25:22;;;;;;;11.43;8.95;;;;;;;;;;5046757;28;20028;-80
2022/10/23 11:27:48;;;;;;;11.27;8.20;;;;;;;;;;5058658;28;20035;-79
2022/10/23 11:30:19;;;;;;;11.25;8.30;;;;;;;;;;5050808;28;20501;-79
2022/10/23 11:33:17;;;;;;;12.18;8.10;;;;;;;;;;5037280;28;20051;-80
2022/10/23 11:36:04;;;;;;;11.32;8.18;;;;;;;;;;5022650;28;20403;-81
2022/10/23 11:38:35;;;;;;;11.50;7.82;;;;;;;;;;5054826;28;20032;-81
2022/10/23 11:41:17;;;;;;;11.82;8.18;;;;;;;;;;5052355;28;20056;-80
2022/10/23 11:43:50;;;;;;;12.07;8.30;;;;;;;;;;5056945;28;20488;-81
2022/10/23 11:46:19;;;;;;;10.93;7.40;;;;;;;;;;5059436;28;20025;-78
2022/10/23 11:48:46;;;;;;;11.13;8.13;;;;;;;;;;5051705;28;20037;-79
2022/10/23 11:51:32;;;;;;;12.93;7.90;;;;;;;;;;5044972;28;20048;-80
2022/10/23 11:54:14;;;;;;;13.15;8.80;;;;;;;;;;5043296;28;20072;-81
2022/10/23 11:56:52;;;;;;;12.63;8.57;;;;;;;;;;5042869;28;20031;-80
2022/10/23 11:59:18;;;;;;;12.65;8.90;;;;;;;;;;5048785;28;20059;-79
2022/10/23 12:01:44;;;;;;;14.13;8.40;;;;;;;;;;5048351;28;20056;-81
2022/10/23 12:04:13;;;;;;;14.07;8.95;;;;;;;;;;5045582;28;20021;-82
2022/10/23 12:06:59;;;;;;;13.40;9.45;;;;;;;;;;5051079;28;20079;-79
2022/10/23 12:09:28;;;;;;;13.35;9.27;;;;;;;;;;5054800;28;20022;-81
2022/10/23 12:12:21;;;;;;;12.02;8.10;;;;;;;;;;5078496;28;20039;-81
2022/10/23 12:14:47;;;;;;;14.27;8.88;;;;;;;;;;5037673;28;20082;-81
2022/10/23 12:17:22;;;;;;;14.30;8.88;;;;;;;;;;5061297;28;20033;-82
2022/10/23 12:19:49;;;;;;;14.98;8.93;;;;;;;;;;5056413;28;20551;-81
2022/10/23 12:22:18;;;;;;;12.68;8.18;;;;;;;;;;5041606;28;20018;-81
2022/10/23 12:25:03;;;;;;;12.73;8.02;;;;;;;;;;5054406;28;20048;-82
2022/10/23 12:27:49;;;;;;;12.63;8.50;;;;;;;;;;5080350;28;20020;-79
2022/10/23 12:30:30;;;;;;;13.98;9.15;;;;;;;;;;5081575;28;20029;-81
2022/10/23 12:32:59;;;;;;;15.75;9.25;;;;;;;;;;5061522;28;20026;-80
2022/10/23 12:35:32;;;;;;;13.77;8.32;;;;;;;;;;5054615;28;20029;-82
2022/10/23 12:37:58;;;;;;;14.23;8.98;;;;;;;;;;5049861;28;20064;-77
2022/10/23 12:40:28;;;;;;;14.80;8.68;;;;;;;;;;5075732;28;20021;-78
2022/10/23 12:42:55;;;;;;;16.67;9.15;;;;;;;;;;5067106;28;20025;-81
2022/10/23 12:45:21;;;;;;;13.65;9.27;;;;;;;;;;5067470;28;21341;-80
2022/10/23 12:47:48;;;;;;;15.45;9.43;;;;;;;;;;5051744;28;20379;-80
2022/10/23 12:50:19;;;;;;;13.27;8.55;;;;;;;;;;5045951;28;20025;-81
2022/10/23 12:52:55;;;;;;;15.60;8.95;;;;;;;;;;5041444;28;20032;-80
2022/10/23 12:55:22;;;;;;;14.75;9.32;;;;;;;;;;5055536;28;20051;-83
2022/10/23 12:57:48;;;;;;;14.90;9.30;;;;;;;;;;5075156;28;20494;-79
2022/10/23 13:00:16;;;;;;;16.30;9.65;;;;;;;;;;5083485;28;20025;-81
2022/10/23 13:02:42;;;;;;;16.25;10.32;;;;;;;;;;5063481;28;20024;-78
2022/10/23 13:05:12;;;;;;;16.05;9.93;;;;;;;;;;5060870;28;20049;-80
2022/10/23 13:07:42;;;;;;;15.75;9.48;;;;;;;;;;5062023;28;20025;-80
2022/10/23 13:10:11;;;;;;;16.38;10.73;;;;;;;;;;5058367;28;20086;-82
2022/10/23 13:12:38;;;;;;;14.88;9.82;;;;;;;;;;5062049;28;20063;-81
2022/10/23 13:15:09;;;;;;;18.42;10.48;;;;;;;;;;5062346;28;20029;-81
2022/10/23 13:17:41;;;;;;;18.67;10.73;;;;;;;;;;5045118;28;20052;-80
2022/10/23 13:20:09;;;;;;;17.23;9.93;;;;;;;;;;5055709;28;20108;-83
2022/10/23 13:22:35;;;;;;;17.13;10.02;;;;;;;;;;5044010;28;20033;-81
2022/10/23 13:25:01;;;;;;;15.13;9.25;;;;;;;;;;5045623;28;20041;-80
2022/10/23 13:27:29;;;;;;;16.77;10.38;;;;;;;;;;5064613;28;20025;-81
2022/10/23 13:29:55;;;;;;;15.40;9.82;;;;;;;;;;5064983;28;20024;-80
2022/10/23 13:32:28;;;;;;;16.13;10.52;;;;;;;;;;5064011;28;20096;-82
2022/10/23 13:34:55;;;;;;;17.88;11.60;;;;;;;;;;5043718;28;20116;-82
2022/10/23 13:37:29;;;;;;;17.63;11.32;;;;;;;;;;5052115;28;20037;-81
2022/10/23 13:40:22;;;;;;;19.17;11.65;;;;;;;;;;5054796;28;20032;-82
2022/10/23 13:42:52;;;;;;;18.15;11.48;;;;;;;;;;5055017;28;20385;-81
2022/10/23 13:45:19;;;;;;;19.35;11.75;;;;;;;;;;5063190;28;20020;-83
2022/10/23 13:47:46;;;;;;;16.98;10.45;;;;;;;;;;5060106;28;20052;-82
2022/10/23 13:50:12;;;;;;;15.55;10.27;;;;;;;;;;5042714;28;20473;-83
2022/10/23 13:52:38;;;;;;;16.20;11.52;;;;;;;;;;5037386;28;20528;-83
2022/10/23 13:55:21;;;;;;;16.95;10.93;;;;;;;;;;5038182;28;20026;-84
2022/10/23 13:57:47;;;;;;;;;;;;;;;;;;5051087;28;20051;-84
2022/10/23 14:00:14;;;;;;;20.67;11.82;;;;;;;;;;5046152;28;20275;-82
2022/10/23 14:02:40;;;;;;;17.67;11.07;;;;;;;;;;5056673;28;20078;-83
2022/10/23 14:05:06;;;;;;;19.45;10.90;;;;;;;;;;5057554;28;20199;-83
2022/10/23 14:07:32;;;;;;;16.73;11.50;;;;;;;;;;5052957;28;20443;-83
2022/10/23 14:09:58;;;;;;;18.80;12.02;;;;;;;;;;5048053;28;20036;-83
2022/10/23 14:12:24;;;;;;;19.77;11.65;;;;;;;;;;5055125;28;20029;-83
2022/10/23 14:14:51;;;;;;;18.17;11.60;;;;;;;;;;5055401;28;20041;-83
2022/10/23 14:17:17;;;;;;;16.38;10.93;;;;;;;;;;5047147;28;20029;-82
2022/10/23 14:19:44;;;;;;;20.70;12.52;;;;;;;;;;5046361;28;20045;-82
2022/10/23 14:22:10;;;;;;;19.05;12.77;;;;;;;;;;5058266;28;20029;-83
2022/10/23 14:24:36;;;;;;;21.60;12.18;;;;;;;;;;5058271;28;20442;-83
2022/10/23 14:27:03;;;;;;;21.67;13.95;;;;;;;;;;5054732;28;20071;-78
2022/10/23 14:29:29;;;;;;;20.73;13.23;;;;;;;;;;5046755;28;20464;-80
2022/10/23 14:31:55;;;;;;;21.83;13.32;;;;;;;;;;5056959;28;20022;-81
2022/10/23 14:34:21;;;;;;;19.77;12.75;;;;;;;;;;5059840;28;20035;-82
2022/10/23 14:36:47;;;;;;;19.90;12.82;;;;;;;;;;5053401;28;20500;-81